< < Back
Terminal Aerodrome Forecast


Current Version              Previous Versions:   1  2  3  4  5  6  7  8  9  

Terminal Aerodrome Forecast

969
FTUS42 KFFC 041258 AAA
TAFFTY
TAF AMD
KFTY 041258Z 0413/0512 25006KT 5SM -SHRA SCT030 OVC070
     FM041800 26012G20KT P6SM -SHRA SCT035 BKN040
      TEMPO 0420/0424 4SM TSRA BR BKN025CB
     FM050000 28003KT P6SM -SHRA OVC040
     FM050900 27003KT P6SM BKN060 PROB30 0509/0512 -SHRA BKN040=

Latest METAR

357
SAUS70 KWBC 042100 RRJ
MTRFTY
METAR KFTY 042053Z 18007KT 10SM SCT044 BKN055 29/21 A3005 RMK AO2 SLP164
T02890206 56009


USA.gov is the U.S. government's official web portal to all federal, state and local government web resources and services.